Bautista Pino — EASK — position and weather

sailwx.info

Track history (hours):
 
Tides and Currents Weather Stations Pressure Air Temp Water Temp Dewpoint Dewpoint Depression Visibility Wind Speed Wind Dir Waves Ship Positions

Bautista Pino

Last reported at 2014-Nov-14 21:24 UTC. Time now 2014-Nov-24 01:28 UTC.
Position N 43°33' W 005°42'.
Warning: this ship's position is 9 days out of date.

Type: Fishing. MMSI: 224181290.

Date/timePositionNaut miles runAvg speedWind from/ knotsBaromVisibWave heightAir tempDewpointWater temp
2014-Nov-14 21:24N 43°33' W 005°42'0 0.0
2014-Nov-14 18:16N 43°33' W 005°42'3 4.0
2014-Nov-14 17:31N 43°34' W 005°38'9 9.4
2014-Nov-14 16:33N 43°36' W 005°26'9 0.5
2014-Nov-13 23:14N 43°36' W 005°38'4 5.6
2014-Nov-13 22:32N 43°33' W 005°41'0 0.2
2014-Nov-13 21:10N 43°33' W 005°42'0 0.0
2014-Nov-13 19:31N 43°33' W 005°42'10 9.0
2014-Nov-13 18:23N 43°36' W 005°28'10 0.5
2014-Nov-12 22:10N 43°34' W 005°42'0 0.4
2014-Nov-12 21:33N 43°33' W 005°42'0 0.0
2014-Nov-12 20:33N 43°33' W 005°42'0 0.0
2014-Nov-12 19:33N 43°33' W 005°42'0 0.0
2014-Nov-12 18:33N 43°33' W 005°42'0 0.0
2014-Nov-12 17:33N 43°33' W 005°42'0 0.0
2014-Nov-12 16:33N 43°33' W 005°42'0 0.0
2014-Nov-12 15:33N 43°33' W 005°42'0 0.0
2014-Nov-12 14:33N 43°33' W 005°42'0 0.0
2014-Nov-12 13:33N 43°33' W 005°42'0 0.0
2014-Nov-12 12:33N 43°33' W 005°42'0 0.0
2014-Nov-12 11:32N 43°33' W 005°42'0 0.0
2014-Nov-12 10:33N 43°33' W 005°42'0 0.0
2014-Nov-12 09:33N 43°33' W 005°42'0 0.0
2014-Nov-12 08:33N 43°33' W 005°42'0 0.0
2014-Nov-12 07:33N 43°33' W 005°42'0 0.0
2014-Nov-12 06:33N 43°33' W 005°42'0 0.0
2014-Nov-12 05:33N 43°33' W 005°42'0 0.0
2014-Nov-12 04:33N 43°33' W 005°42'0 0.0
2014-Nov-12 03:33N 43°33' W 005°42'0 0.0
2014-Nov-12 02:33N 43°33' W 005°42'0 0.0
2014-Nov-12 01:33N 43°33' W 005°42'0 0.0
2014-Nov-12 00:33N 43°33' W 005°42'0 0.0
2014-Nov-11 23:33N 43°33' W 005°42'0 0.0
2014-Nov-11 21:29N 43°33' W 005°42'1 0.0
2014-Nov-10 23:10N 43°34' W 005°41'1 1.4
2014-Nov-10 22:29N 43°33' W 005°42'0 0.0
2014-Nov-10 21:28N 43°33' W 005°42'0 0.0
2014-Nov-10 20:31N 43°33' W 005°42'2 1.8
2014-Nov-10 19:33N 43°34' W 005°40'1 0.0
2014-Nov-09 23:30N 43°35' W 005°39'3 2.7
2014-Nov-09 22:33N 43°33' W 005°42'0 0.0
2014-Nov-09 19:12N 43°33' W 005°42'0 0.0
2014-Nov-09 17:19N 43°33' W 005°42'0 0.0
2014-Nov-09 16:32N 43°33' W 005°42'0 0.0
2014-Nov-09 15:32N 43°33' W 005°42'0 0.0
2014-Nov-09 14:21N 43°33' W 005°42'0 0.0
2014-Nov-09 12:12N 43°33' W 005°42'0 0.0
2014-Nov-09 11:33N 43°33' W 005°42'0 0.0
2014-Nov-09 10:30N 43°33' W 005°42'0 0.0
2014-Nov-09 09:26N 43°33' W 005°42'0 0.0
2014-Nov-09 08:30N 43°33' W 005°42'0 0.0
2014-Nov-09 07:27N 43°33' W 005°42'0 0.0
2014-Nov-09 06:06N 43°33' W 005°42'0 0.0
2014-Nov-09 05:33N 43°33' W 005°42'0 0.0
2014-Nov-09 04:26N 43°33' W 005°42'0 0.0
2014-Nov-09 03:30N 43°33' W 005°42'0 0.0
2014-Nov-09 02:12N 43°33' W 005°42'0 0.0
2014-Nov-09 01:20N 43°33' W 005°42'0 0.0
2014-Nov-08 23:08N 43°33' W 005°42'0 0.0
2014-Nov-08 21:32N 43°33' W 005°42'0 0.0
2014-Nov-08 20:33N 43°33' W 005°42'0 0.0
2014-Nov-08 19:33N 43°33' W 005°42'0 0.0
2014-Nov-08 18:33N 43°33' W 005°42'0 0.0
2014-Nov-08 17:33N 43°33' W 005°42'0 0.0
2014-Nov-08 16:33N 43°33' W 005°42'0 0.0
2014-Nov-08 15:33N 43°33' W 005°42'0 0.0
2014-Nov-08 14:31N 43°33' W 005°42'0 0.0
2014-Nov-08 13:27N 43°33' W 005°42'0 0.0
2014-Nov-08 12:33N 43°33' W 005°42'0 0.0
2014-Nov-08 11:29N 43°33' W 005°42'0 0.0
2014-Nov-08 10:33N 43°33' W 005°42'0 0.0
2014-Nov-08 09:33N 43°33' W 005°42'0 0.0
2014-Nov-08 08:31N 43°33' W 005°42'0 0.0
2014-Nov-08 07:33N 43°33' W 005°42'0 0.0
2014-Nov-08 06:30N 43°33' W 005°42'0 0.0
2014-Nov-08 05:32N 43°33' W 005°42'0 0.0
2014-Nov-08 04:30N 43°33' W 005°42'0 0.0
2014-Nov-08 03:33N 43°33' W 005°42'0 0.0
2014-Nov-08 02:32N 43°33' W 005°42'0 0.0
2014-Nov-08 01:32N 43°33' W 005°42'0 0.0
2014-Nov-08 00:29N 43°33' W 005°42'0 0.0
2014-Nov-07 23:30N 43°33' W 005°42'0 0.0
2014-Nov-07 22:33N 43°33' W 005°42'0 0.0
2014-Nov-07 21:33N 43°33' W 005°42'0 0.0
2014-Nov-07 20:32N 43°33' W 005°42'0 0.0
2014-Nov-07 19:33N 43°33' W 005°42'0 0.0
2014-Nov-07 18:32N 43°33' W 005°42'0 0.0
2014-Nov-07 17:33N 43°33' W 005°42'0 0.0
2014-Nov-07 16:32N 43°33' W 005°42'0 0.0
2014-Nov-07 15:27N 43°33' W 005°42'0 0.0
2014-Nov-07 14:08N 43°33' W 005°42'0 0.0
2014-Nov-07 13:17N 43°33' W 005°42'0 0.0
2014-Nov-07 09:13N 43°33' W 005°42'0 0.0
2014-Nov-07 08:33N 43°33' W 005°42'0 0.0
2014-Nov-07 07:23N 43°33' W 005°42'0 0.0
2014-Nov-07 06:13N 43°33' W 005°42'0 0.0
2014-Nov-07 04:27N 43°33' W 005°42'0 0.0
2014-Nov-07 03:31N 43°33' W 005°42'0 0.0
2014-Nov-07 02:33N 43°33' W 005°42'0 0.0
2014-Nov-07 01:32N 43°33' W 005°42'0 0.0
2014-Nov-07 00:30N 43°33' W 005°42'0 0.0
2014-Nov-06 22:33N 43°33' W 005°42'5 1.7
2014-Nov-06 19:25N 43°35' W 005°35'7 0.4
2014-Nov-06 03:27N 43°41' W 005°30'9 9.3
2014-Nov-06 02:32N 43°35' W 005°38'3 2.7
2014-Nov-06 01:23N 43°33' W 005°42'0 0.0
2014-Nov-06 00:33N 43°33' W 005°42'0 0.0
2014-Nov-05 23:32N 43°33' W 005°42'0 0.0
2014-Nov-05 22:33N 43°33' W 005°42'0 0.1
2014-Nov-05 21:23N 43°33' W 005°42'0 0.0
2014-Nov-05 20:04N 43°33' W 005°42'5 7.9
2014-Nov-05 19:28N 43°35' W 005°35'2 0.1
2014-Nov-04 23:29N 43°37' W 005°37'5 4.9
2014-Nov-04 22:32N 43°33' W 005°42'0 0.0
2014-Nov-04 21:33N 43°33' W 005°42'  
Track history (hours):
 
Tides and Currents Weather Stations Pressure Air Temp Water Temp Dewpoint Dewpoint Depression Visibility Wind Speed Wind Dir Waves Ship Positions

Bautista Pino

Last reported at 2014-Nov-14 21:24 UTC. Time now 2014-Nov-24 01:28 UTC.
Position N 43°33' W 005°42'.
Warning: this ship's position is 9 days out of date.

Type: Fishing. MMSI: 224181290.

Date/timePositionNaut miles runAvg speedWind from/ knotsBaromVisibWave heightAir tempDewpointWater temp
2014-Nov-14 21:24N 43°33' W 005°42'0 0.0
2014-Nov-14 18:16N 43°33' W 005°42'3 4.0
2014-Nov-14 17:31N 43°34' W 005°38'9 9.4
2014-Nov-14 16:33N 43°36' W 005°26'9 0.5
2014-Nov-13 23:14N 43°36' W 005°38'4 5.6
2014-Nov-13 22:32N 43°33' W 005°41'0 0.2
2014-Nov-13 21:10N 43°33' W 005°42'0 0.0
2014-Nov-13 19:31N 43°33' W 005°42'10 9.0
2014-Nov-13 18:23N 43°36' W 005°28'10 0.5
2014-Nov-12 22:10N 43°34' W 005°42'0 0.4
2014-Nov-12 21:33N 43°33' W 005°42'0 0.0
2014-Nov-12 20:33N 43°33' W 005°42'0 0.0
2014-Nov-12 19:33N 43°33' W 005°42'0 0.0
2014-Nov-12 18:33N 43°33' W 005°42'0 0.0
2014-Nov-12 17:33N 43°33' W 005°42'0 0.0
2014-Nov-12 16:33N 43°33' W 005°42'0 0.0
2014-Nov-12 15:33N 43°33' W 005°42'0 0.0
2014-Nov-12 14:33N 43°33' W 005°42'0 0.0
2014-Nov-12 13:33N 43°33' W 005°42'0 0.0
2014-Nov-12 12:33N 43°33' W 005°42'0 0.0
2014-Nov-12 11:32N 43°33' W 005°42'0 0.0
2014-Nov-12 10:33N 43°33' W 005°42'0 0.0
2014-Nov-12 09:33N 43°33' W 005°42'0 0.0
2014-Nov-12 08:33N 43°33' W 005°42'0 0.0
2014-Nov-12 07:33N 43°33' W 005°42'0 0.0
2014-Nov-12 06:33N 43°33' W 005°42'0 0.0
2014-Nov-12 05:33N 43°33' W 005°42'0 0.0
2014-Nov-12 04:33N 43°33' W 005°42'0 0.0
2014-Nov-12 03:33N 43°33' W 005°42'0 0.0
2014-Nov-12 02:33N 43°33' W 005°42'0 0.0
2014-Nov-12 01:33N 43°33' W 005°42'0 0.0
2014-Nov-12 00:33N 43°33' W 005°42'0 0.0
2014-Nov-11 23:33N 43°33' W 005°42'0 0.0
2014-Nov-11 21:29N 43°33' W 005°42'1 0.0
2014-Nov-10 23:10N 43°34' W 005°41'1 1.4
2014-Nov-10 22:29N 43°33' W 005°42'0 0.0
2014-Nov-10 21:28N 43°33' W 005°42'0 0.0
2014-Nov-10 20:31N 43°33' W 005°42'2 1.8
2014-Nov-10 19:33N 43°34' W 005°40'1 0.0
2014-Nov-09 23:30N 43°35' W 005°39'3 2.7
2014-Nov-09 22:33N 43°33' W 005°42'0 0.0
2014-Nov-09 19:12N 43°33' W 005°42'0 0.0
2014-Nov-09 17:19N 43°33' W 005°42'0 0.0
2014-Nov-09 16:32N 43°33' W 005°42'0 0.0
2014-Nov-09 15:32N 43°33' W 005°42'0 0.0
2014-Nov-09 14:21N 43°33' W 005°42'0 0.0
2014-Nov-09 12:12N 43°33' W 005°42'0 0.0
2014-Nov-09 11:33N 43°33' W 005°42'0 0.0
2014-Nov-09 10:30N 43°33' W 005°42'0 0.0
2014-Nov-09 09:26N 43°33' W 005°42'0 0.0
2014-Nov-09 08:30N 43°33' W 005°42'0 0.0
2014-Nov-09 07:27N 43°33' W 005°42'0 0.0
2014-Nov-09 06:06N 43°33' W 005°42'0 0.0
2014-Nov-09 05:33N 43°33' W 005°42'0 0.0
2014-Nov-09 04:26N 43°33' W 005°42'0 0.0
2014-Nov-09 03:30N 43°33' W 005°42'0 0.0
2014-Nov-09 02:12N 43°33' W 005°42'0 0.0
2014-Nov-09 01:20N 43°33' W 005°42'0 0.0
2014-Nov-08 23:08N 43°33' W 005°42'0 0.0
2014-Nov-08 21:32N 43°33' W 005°42'0 0.0
2014-Nov-08 20:33N 43°33' W 005°42'0 0.0
2014-Nov-08 19:33N 43°33' W 005°42'0 0.0
2014-Nov-08 18:33N 43°33' W 005°42'0 0.0
2014-Nov-08 17:33N 43°33' W 005°42'0 0.0
2014-Nov-08 16:33N 43°33' W 005°42'0 0.0
2014-Nov-08 15:33N 43°33' W 005°42'0 0.0
2014-Nov-08 14:31N 43°33' W 005°42'0 0.0
2014-Nov-08 13:27N 43°33' W 005°42'0 0.0
2014-Nov-08 12:33N 43°33' W 005°42'0 0.0
2014-Nov-08 11:29N 43°33' W 005°42'0 0.0
2014-Nov-08 10:33N 43°33' W 005°42'0 0.0
2014-Nov-08 09:33N 43°33' W 005°42'0 0.0
2014-Nov-08 08:31N 43°33' W 005°42'0 0.0
2014-Nov-08 07:33N 43°33' W 005°42'0 0.0
2014-Nov-08 06:30N 43°33' W 005°42'0 0.0
2014-Nov-08 05:32N 43°33' W 005°42'0 0.0
2014-Nov-08 04:30N 43°33' W 005°42'0 0.0
2014-Nov-08 03:33N 43°33' W 005°42'0 0.0
2014-Nov-08 02:32N 43°33' W 005°42'0 0.0
2014-Nov-08 01:32N 43°33' W 005°42'0 0.0
2014-Nov-08 00:29N 43°33' W 005°42'0 0.0
2014-Nov-07 23:30N 43°33' W 005°42'0 0.0
2014-Nov-07 22:33N 43°33' W 005°42'0 0.0
2014-Nov-07 21:33N 43°33' W 005°42'0 0.0
2014-Nov-07 20:32N 43°33' W 005°42'0 0.0
2014-Nov-07 19:33N 43°33' W 005°42'0 0.0
2014-Nov-07 18:32N 43°33' W 005°42'0 0.0
2014-Nov-07 17:33N 43°33' W 005°42'0 0.0
2014-Nov-07 16:32N 43°33' W 005°42'0 0.0
2014-Nov-07 15:27N 43°33' W 005°42'0 0.0
2014-Nov-07 14:08N 43°33' W 005°42'0 0.0
2014-Nov-07 13:17N 43°33' W 005°42'0 0.0
2014-Nov-07 09:13N 43°33' W 005°42'0 0.0
2014-Nov-07 08:33N 43°33' W 005°42'0 0.0
2014-Nov-07 07:23N 43°33' W 005°42'0 0.0
2014-Nov-07 06:13N 43°33' W 005°42'0 0.0
2014-Nov-07 04:27N 43°33' W 005°42'0 0.0
2014-Nov-07 03:31N 43°33' W 005°42'0 0.0
2014-Nov-07 02:33N 43°33' W 005°42'0 0.0
2014-Nov-07 01:32N 43°33' W 005°42'0 0.0
2014-Nov-07 00:30N 43°33' W 005°42'0 0.0
2014-Nov-06 22:33N 43°33' W 005°42'5 1.7
2014-Nov-06 19:25N 43°35' W 005°35'7 0.4
2014-Nov-06 03:27N 43°41' W 005°30'9 9.3
2014-Nov-06 02:32N 43°35' W 005°38'3 2.7
2014-Nov-06 01:23N 43°33' W 005°42'0 0.0
2014-Nov-06 00:33N 43°33' W 005°42'0 0.0
2014-Nov-05 23:32N 43°33' W 005°42'0 0.0
2014-Nov-05 22:33N 43°33' W 005°42'0 0.1
2014-Nov-05 21:23N 43°33' W 005°42'0 0.0
2014-Nov-05 20:04N 43°33' W 005°42'5 7.9
2014-Nov-05 19:28N 43°35' W 005°35'2 0.1
2014-Nov-04 23:29N 43°37' W 005°37'5 4.9
2014-Nov-04 22:32N 43°33' W 005°42'0 0.0
2014-Nov-04 21:33N 43°33' W 005°42'  

Dump ship's entire track history